sensor_id;sensor_type;location;lat;lon;timestamp;pressure;altitude;pressure_sealevel;temperature;humidity
9717;BME280;4897;43.570;27.832;2024-03-02T00:01:36;98903.00;;;8.52;100.00
9717;BME280;4897;43.570;27.832;2024-03-02T00:04:04;98902.72;;;8.66;100.00
9717;BME280;4897;43.570;27.832;2024-03-02T00:06:32;98898.53;;;8.63;100.00
9717;BME280;4897;43.570;27.832;2024-03-02T00:09:04;98873.69;;;8.52;100.00
9717;BME280;4897;43.570;27.832;2024-03-02T00:11:34;98884.50;;;8.50;100.00
9717;BME280;4897;43.570;27.832;2024-03-02T00:14:02;98886.16;;;8.51;100.00
9717;BME280;4897;43.570;27.832;2024-03-02T00:16:31;98885.34;;;8.51;100.00
9717;BME280;4897;43.570;27.832;2024-03-02T00:19:01;98884.84;;;8.57;100.00
9717;BME280;4897;43.570;27.832;2024-03-02T00:21:30;98890.41;;;8.54;100.00
9717;BME280;4897;43.570;27.832;2024-03-02T00:23:58;98871.03;;;8.52;100.00
9717;BME280;4897;43.570;27.832;2024-03-02T00:26:26;98849.97;;;8.49;100.00
9717;BME280;4897;43.570;27.832;2024-03-02T00:28:55;98875.97;;;8.67;100.00
9717;BME280;4897;43.570;27.832;2024-03-02T00:31:23;98860.50;;;8.61;100.00
9717;BME280;4897;43.570;27.832;2024-03-02T00:33:50;98868.50;;;8.61;100.00
9717;BME280;4897;43.570;27.832;2024-03-02T00:36:22;98863.03;;;8.63;100.00
9717;BME280;4897;43.570;27.832;2024-03-02T00:38:54;98858.66;;;8.62;100.00
9717;BME280;4897;43.570;27.832;2024-03-02T00:41:24;98858.56;;;8.63;100.00
9717;BME280;4897;43.570;27.832;2024-03-02T00:43:57;98841.34;;;8.56;100.00
9717;BME280;4897;43.570;27.832;2024-03-02T00:46:27;98833.84;;;8.61;100.00
9717;BME280;4897;43.570;27.832;2024-03-02T00:48:56;98841.53;;;8.75;100.00
9717;BME280;4897;43.570;27.832;2024-03-02T00:51:24;98829.69;;;8.68;100.00
9717;BME280;4897;43.570;27.832;2024-03-02T00:53:52;98827.38;;;8.64;100.00
9717;BME280;4897;43.570;27.832;2024-03-02T00:56:21;98836.22;;;8.75;100.00
9717;BME280;4897;43.570;27.832;2024-03-02T00:58:49;98815.06;;;8.63;100.00
9717;BME280;4897;43.570;27.832;2024-03-02T01:01:17;98839.09;;;8.83;100.00
9717;BME280;4897;43.570;27.832;2024-03-02T01:03:45;98837.13;;;8.85;100.00
9717;BME280;4897;43.570;27.832;2024-03-02T01:06:11;98823.22;;;8.82;100.00
9717;BME280;4897;43.570;27.832;2024-03-02T01:08:38;98828.91;;;8.89;100.00
9717;BME280;4897;43.570;27.832;2024-03-02T01:11:06;98843.69;;;8.81;100.00
9717;BME280;4897;43.570;27.832;2024-03-02T01:13:33;98810.78;;;8.71;100.00
9717;BME280;4897;43.570;27.832;2024-03-02T01:16:00;98742.13;;;8.32;100.00
9717;BME280;4897;43.570;27.832;2024-03-02T01:18:29;98811.19;;;8.88;100.00
9717;BME280;4897;43.570;27.832;2024-03-02T01:20:56;98819.78;;;8.91;100.00
9717;BME280;4897;43.570;27.832;2024-03-02T01:23:23;98813.63;;;8.91;100.00
9717;BME280;4897;43.570;27.832;2024-03-02T01:25:51;98801.63;;;8.85;100.00
9717;BME280;4897;43.570;27.832;2024-03-02T01:28:18;98811.66;;;8.93;100.00
9717;BME280;4897;43.570;27.832;2024-03-02T01:30:48;98845.66;;;8.79;100.00
9717;BME280;4897;43.570;27.832;2024-03-02T01:33:15;98785.38;;;8.67;100.00
9717;BME280;4897;43.570;27.832;2024-03-02T01:35:43;98803.13;;;8.78;100.00
9717;BME280;4897;43.570;27.832;2024-03-02T01:38:11;98795.13;;;8.78;100.00
9717;BME280;4897;43.570;27.832;2024-03-02T01:40:38;98817.97;;;8.92;100.00
9717;BME280;4897;43.570;27.832;2024-03-02T01:43:09;98800.91;;;8.83;100.00
9717;BME280;4897;43.570;27.832;2024-03-02T01:45:36;98803.34;;;8.86;100.00
9717;BME280;4897;43.570;27.832;2024-03-02T01:48:04;98822.53;;;9.01;100.00
9717;BME280;4897;43.570;27.832;2024-03-02T01:50:32;98797.09;;;8.97;100.00
9717;BME280;4897;43.570;27.832;2024-03-02T01:53:01;98771.34;;;8.86;100.00
9717;BME280;4897;43.570;27.832;2024-03-02T01:55:28;98794.16;;;9.00;100.00
9717;BME280;4897;43.570;27.832;2024-03-02T01:57:55;98729.50;;;8.66;100.00
9717;BME280;4897;43.570;27.832;2024-03-02T02:00:23;98764.69;;;8.80;100.00
9717;BME280;4897;43.570;27.832;2024-03-02T02:02:52;98783.97;;;9.05;100.00
9717;BME280;4897;43.570;27.832;2024-03-02T02:05:19;98789.03;;;9.08;100.00
9717;BME280;4897;43.570;27.832;2024-03-02T02:07:46;98767.34;;;9.01;100.00
9717;BME280;4897;43.570;27.832;2024-03-02T02:10:15;98787.06;;;9.10;100.00
9717;BME280;4897;43.570;27.832;2024-03-02T02:12:42;98777.19;;;9.01;100.00
9717;BME280;4897;43.570;27.832;2024-03-02T02:15:25;98786.63;;;9.05;100.00
9717;BME280;4897;43.570;27.832;2024-03-02T02:17:52;98777.19;;;9.01;100.00
9717;BME280;4897;43.570;27.832;2024-03-02T02:20:19;98777.97;;;8.92;100.00
9717;BME280;4897;43.570;27.832;2024-03-02T02:22:57;98769.38;;;8.88;100.00
9717;BME280;4897;43.570;27.832;2024-03-02T02:25:24;98789.09;;;8.97;100.00
9717;BME280;4897;43.570;27.832;2024-03-02T02:27:52;98785.97;;;8.92;100.00
9717;BME280;4897;43.570;27.832;2024-03-02T02:30:20;98775.69;;;8.87;100.00
9717;BME280;4897;43.570;27.832;2024-03-02T02:32:47;98562.97;;;7.67;100.00
9717;BME280;4897;43.570;27.832;2024-03-02T02:35:14;98771.41;;;8.96;100.00
9717;BME280;4897;43.570;27.832;2024-03-02T02:37:42;98793.31;;;8.99;100.00
9717;BME280;4897;43.570;27.832;2024-03-02T02:40:11;98768.13;;;8.71;100.00
9717;BME280;4897;43.570;27.832;2024-03-02T02:42:39;98810.72;;;8.82;100.00
9717;BME280;4897;43.570;27.832;2024-03-02T02:45:07;98773.66;;;8.79;100.00
9717;BME280;4897;43.570;27.832;2024-03-02T02:47:34;98772.81;;;8.79;100.00
9717;BME280;4897;43.570;27.832;2024-03-02T02:50:02;98779.25;;;8.76;100.00
9717;BME280;4897;43.570;27.832;2024-03-02T02:52:32;98777.38;;;8.88;100.00
9717;BME280;4897;43.570;27.832;2024-03-02T02:55:03;98771.44;;;8.84;100.00
9717;BME280;4897;43.570;27.832;2024-03-02T02:57:31;98762.25;;;8.57;100.00
9717;BME280;4897;43.570;27.832;2024-03-02T03:00:02;98757.59;;;8.70;100.00
9717;BME280;4897;43.570;27.832;2024-03-02T03:02:38;98770.91;;;8.70;100.00
9717;BME280;4897;43.570;27.832;2024-03-02T03:05:08;98744.88;;;8.73;100.00
9717;BME280;4897;43.570;27.832;2024-03-02T03:07:35;98706.69;;;8.52;100.00
9717;BME280;4897;43.570;27.832;2024-03-02T03:10:03;98708.50;;;8.52;100.00
9717;BME280;4897;43.570;27.832;2024-03-02T03:12:33;98721.19;;;8.59;100.00
9717;BME280;4897;43.570;27.832;2024-03-02T03:15:03;98722.66;;;8.52;100.00
9717;BME280;4897;43.570;27.832;2024-03-02T03:17:32;98731.78;;;8.39;100.00
9717;BME280;4897;43.570;27.832;2024-03-02T03:19:59;98749.84;;;8.24;100.00
9717;BME280;4897;43.570;27.832;2024-03-02T03:22:26;98761.50;;;8.34;100.00
9717;BME280;4897;43.570;27.832;2024-03-02T03:24:53;98764.16;;;8.23;100.00
9717;BME280;4897;43.570;27.832;2024-03-02T03:27:20;98760.78;;;8.21;100.00
9717;BME280;4897;43.570;27.832;2024-03-02T03:29:48;98758.81;;;8.23;100.00
9717;BME280;4897;43.570;27.832;2024-03-02T03:32:15;98755.19;;;8.24;100.00
9717;BME280;4897;43.570;27.832;2024-03-02T03:34:42;98761.63;;;8.22;100.00
9717;BME280;4897;43.570;27.832;2024-03-02T03:37:09;98740.97;;;8.03;100.00
9717;BME280;4897;43.570;27.832;2024-03-02T03:39:36;98761.34;;;8.25;100.00
9717;BME280;4897;43.570;27.832;2024-03-02T03:42:03;98757.13;;;8.22;100.00
9717;BME280;4897;43.570;27.832;2024-03-02T03:44:30;98753.63;;;8.22;100.00
9717;BME280;4897;43.570;27.832;2024-03-02T03:46:58;98754.97;;;8.27;100.00
9717;BME280;4897;43.570;27.832;2024-03-02T03:49:26;98717.69;;;8.16;100.00
9717;BME280;4897;43.570;27.832;2024-03-02T03:51:53;98788.13;;;8.34;100.00
9717;BME280;4897;43.570;27.832;2024-03-02T03:54:20;98749.72;;;8.37;100.00
9717;BME280;4897;43.570;27.832;2024-03-02T03:56:47;98706.81;;;8.08;100.00
9717;BME280;4897;43.570;27.832;2024-03-02T03:59:14;98751.78;;;8.44;100.00
9717;BME280;4897;43.570;27.832;2024-03-02T04:01:40;98748.03;;;8.47;100.00
9717;BME280;4897;43.570;27.832;2024-03-02T04:04:09;98741.16;;;8.33;100.00
9717;BME280;4897;43.570;27.832;2024-03-02T04:06:36;98737.25;;;8.37;100.00
9717;BME280;4897;43.570;27.832;2024-03-02T04:09:02;98754.38;;;8.55;100.00
9717;BME280;4897;43.570;27.832;2024-03-02T04:11:30;98750.88;;;8.55;100.00
9717;BME280;4897;43.570;27.832;2024-03-02T04:14:00;98736.53;;;8.35;100.00
9717;BME280;4897;43.570;27.832;2024-03-02T04:16:27;98753.25;;;8.37;100.00
9717;BME280;4897;43.570;27.832;2024-03-02T04:18:54;98748.03;;;8.36;100.00
9717;BME280;4897;43.570;27.832;2024-03-02T04:21:26;98736.91;;;8.31;100.00
9717;BME280;4897;43.570;27.832;2024-03-02T04:23:56;98755.88;;;8.48;100.00
9717;BME280;4897;43.570;27.832;2024-03-02T04:26:24;98758.53;;;8.48;100.00
9717;BME280;4897;43.570;27.832;2024-03-02T04:28:54;98688.31;;;8.06;100.00
9717;BME280;4897;43.570;27.832;2024-03-02T04:31:21;98756.84;;;8.47;100.00
9717;BME280;4897;43.570;27.832;2024-03-02T04:33:48;98757.44;;;8.51;100.00
9717;BME280;4897;43.570;27.832;2024-03-02T04:36:15;98746.44;;;8.44;100.00
9717;BME280;4897;43.570;27.832;2024-03-02T04:38:43;98750.06;;;8.43;100.00
9717;BME280;4897;43.570;27.832;2024-03-02T04:41:10;98758.53;;;8.48;100.00
9717;BME280;4897;43.570;27.832;2024-03-02T04:43:37;98761.41;;;8.56;100.00
9717;BME280;4897;43.570;27.832;2024-03-02T04:46:05;98731.63;;;8.51;100.00
9717;BME280;4897;43.570;27.832;2024-03-02T04:48:32;98740.16;;;8.66;100.00
9717;BME280;4897;43.570;27.832;2024-03-02T04:50:59;98726.06;;;8.54;100.00
9717;BME280;4897;43.570;27.832;2024-03-02T04:53:26;98737.91;;;8.61;100.00
9717;BME280;4897;43.570;27.832;2024-03-02T04:55:54;98781.81;;;8.78;100.00
9717;BME280;4897;43.570;27.832;2024-03-02T04:58:35;98782.59;;;8.90;100.00
9717;BME280;4897;43.570;27.832;2024-03-02T05:01:02;98772.56;;;8.82;100.00
9717;BME280;4897;43.570;27.832;2024-03-02T05:03:29;98778.44;;;8.97;100.00
9717;BME280;4897;43.570;27.832;2024-03-02T05:05:56;98749.69;;;8.79;100.00
9717;BME280;4897;43.570;27.832;2024-03-02T05:08:23;98775.44;;;8.90;100.00
9717;BME280;4897;43.570;27.832;2024-03-02T05:10:50;98776.69;;;8.86;100.00
9717;BME280;4897;43.570;27.832;2024-03-02T05:13:18;98783.44;;;9.11;100.00
9717;BME280;4897;43.570;27.832;2024-03-02T05:15:46;98788.31;;;9.06;100.00
9717;BME280;4897;43.570;27.832;2024-03-02T05:18:13;98798.97;;;9.06;100.00
9717;BME280;4897;43.570;27.832;2024-03-02T05:20:43;98800.03;;;9.14;100.00
9717;BME280;4897;43.570;27.832;2024-03-02T05:23:12;98806.34;;;9.13;100.00
9717;BME280;4897;43.570;27.832;2024-03-02T05:25:39;98792.69;;;9.07;100.00
9717;BME280;4897;43.570;27.832;2024-03-02T05:28:06;98793.22;;;9.21;100.00
9717;BME280;4897;43.570;27.832;2024-03-02T05:30:35;98800.53;;;9.29;100.00
9717;BME280;4897;43.570;27.832;2024-03-02T05:33:02;98778.75;;;9.24;100.00
9717;BME280;4897;43.570;27.832;2024-03-02T05:35:29;98794.69;;;9.35;100.00
9717;BME280;4897;43.570;27.832;2024-03-02T05:37:56;98754.81;;;9.13;100.00
9717;BME280;4897;43.570;27.832;2024-03-02T05:40:24;98796.56;;;9.44;100.00
9717;BME280;4897;43.570;27.832;2024-03-02T05:42:52;98746.47;;;9.27;100.00
9717;BME280;4897;43.570;27.832;2024-03-02T05:45:19;98777.44;;;9.39;100.00
9717;BME280;4897;43.570;27.832;2024-03-02T05:47:47;98778.59;;;9.46;100.00
9717;BME280;4897;43.570;27.832;2024-03-02T05:50:14;98776.81;;;9.56;100.00
9717;BME280;4897;43.570;27.832;2024-03-02T05:52:41;98792.59;;;9.59;100.00
9717;BME280;4897;43.570;27.832;2024-03-02T05:55:08;98769.63;;;9.47;100.00
9717;BME280;4897;43.570;27.832;2024-03-02T05:57:35;98783.16;;;9.55;100.00
9717;BME280;4897;43.570;27.832;2024-03-02T06:00:15;98783.66;;;9.70;100.00
9717;BME280;4897;43.570;27.832;2024-03-02T06:02:42;98784.13;;;9.84;100.00
9717;BME280;4897;43.570;27.832;2024-03-02T06:05:11;98785.25;;;9.91;100.00
9717;BME280;4897;43.570;27.832;2024-03-02T06:07:38;98759.34;;;9.73;100.00
9717;BME280;4897;43.570;27.832;2024-03-02T06:10:06;98782.75;;;9.99;100.00
9717;BME280;4897;43.570;27.832;2024-03-02T06:12:34;98783.06;;;10.06;100.00
9717;BME280;4897;43.570;27.832;2024-03-02T06:15:01;98750.75;;;9.69;100.00
9717;BME280;4897;43.570;27.832;2024-03-02T06:17:29;98782.88;;;9.88;100.00
9717;BME280;4897;43.570;27.832;2024-03-02T06:19:56;98762.94;;;9.92;100.00
9717;BME280;4897;43.570;27.832;2024-03-02T06:22:25;98779.75;;;10.13;100.00
9717;BME280;4897;43.570;27.832;2024-03-02T06:24:52;98768.44;;;10.10;100.00
9717;BME280;4897;43.570;27.832;2024-03-02T06:27:19;98736.78;;;9.86;100.00
9717;BME280;4897;43.570;27.832;2024-03-02T06:29:46;98757.56;;;10.22;100.00
9717;BME280;4897;43.570;27.832;2024-03-02T06:32:17;98724.63;;;10.12;100.00
9717;BME280;4897;43.570;27.832;2024-03-02T06:34:44;98767.16;;;10.34;100.00
9717;BME280;4897;43.570;27.832;2024-03-02T06:37:13;98752.09;;;10.33;100.00
9717;BME280;4897;43.570;27.832;2024-03-02T06:39:43;98759.44;;;10.51;100.00
9717;BME280;4897;43.570;27.832;2024-03-02T06:42:10;98749.16;;;10.46;100.00
9717;BME280;4897;43.570;27.832;2024-03-02T06:44:37;98733.41;;;10.53;100.00
9717;BME280;4897;43.570;27.832;2024-03-02T06:47:04;98739.72;;;10.52;100.00
9717;BME280;4897;43.570;27.832;2024-03-02T06:49:31;98735.66;;;10.67;100.00
9717;BME280;4897;43.570;27.832;2024-03-02T06:52:00;98754.81;;;10.91;100.00
9717;BME280;4897;43.570;27.832;2024-03-02T06:54:27;98757.88;;;10.96;100.00
9717;BME280;4897;43.570;27.832;2024-03-02T06:56:55;98756.47;;;10.92;100.00
9717;BME280;4897;43.570;27.832;2024-03-02T06:59:22;98750.56;;;10.98;100.00
9717;BME280;4897;43.570;27.832;2024-03-02T07:01:50;98714.69;;;10.62;100.00
9717;BME280;4897;43.570;27.832;2024-03-02T07:04:17;98737.97;;;11.27;100.00
9717;BME280;4897;43.570;27.832;2024-03-02T07:06:42;98741.22;;;11.21;100.00
9717;BME280;4897;43.570;27.832;2024-03-02T07:09:09;98766.09;;;11.50;100.00
9717;BME280;4897;43.570;27.832;2024-03-02T07:11:39;98759.72;;;11.61;100.00
9717;BME280;4897;43.570;27.832;2024-03-02T07:14:07;98766.78;;;11.62;100.00
9717;BME280;4897;43.570;27.832;2024-03-02T07:16:37;98769.16;;;11.74;100.00
9717;BME280;4897;43.570;27.832;2024-03-02T07:19:05;98760.13;;;11.75;100.00
9717;BME280;4897;43.570;27.832;2024-03-02T07:21:32;98768.94;;;11.85;100.00
9717;BME280;4897;43.570;27.832;2024-03-02T07:24:02;98777.16;;;11.84;100.00
9717;BME280;4897;43.570;27.832;2024-03-02T07:26:30;98769.16;;;11.74;100.00
9717;BME280;4897;43.570;27.832;2024-03-02T07:28:57;98785.03;;;11.85;100.00
9717;BME280;4897;43.570;27.832;2024-03-02T07:31:26;98730.69;;;11.66;100.00
9717;BME280;4897;43.570;27.832;2024-03-02T07:33:53;98784.25;;;12.02;100.00
9717;BME280;4897;43.570;27.832;2024-03-02T07:36:20;98783.63;;;12.18;100.00
9717;BME280;4897;43.570;27.832;2024-03-02T07:38:46;98781.94;;;12.17;100.00
9717;BME280;4897;43.570;27.832;2024-03-02T07:41:15;98776.03;;;12.14;100.00
9717;BME280;4897;43.570;27.832;2024-03-02T07:43:42;98783.72;;;12.26;100.00
9717;BME280;4897;43.570;27.832;2024-03-02T07:46:10;98760.88;;;12.22;100.00
9717;BME280;4897;43.570;27.832;2024-03-02T07:48:38;98724.78;;;12.17;100.00
9717;BME280;4897;43.570;27.832;2024-03-02T07:51:05;98781.25;;;12.60;100.00
9717;BME280;4897;43.570;27.832;2024-03-02T07:53:32;98784.09;;;12.76;100.00
9717;BME280;4897;43.570;27.832;2024-03-02T07:55:59;98798.03;;;12.79;100.00
9717;BME280;4897;43.570;27.832;2024-03-02T07:58:29;98531.28;;;11.33;100.00
9717;BME280;4897;43.570;27.832;2024-03-02T08:00:59;98768.34;;;12.81;100.00
9717;BME280;4897;43.570;27.832;2024-03-02T08:03:26;98718.63;;;12.34;100.00
9717;BME280;4897;43.570;27.832;2024-03-02T08:05:55;98795.81;;;12.75;100.00
9717;BME280;4897;43.570;27.832;2024-03-02T08:08:22;98783.25;;;12.93;100.00
9717;BME280;4897;43.570;27.832;2024-03-02T08:10:49;98764.75;;;12.90;100.00
9717;BME280;4897;43.570;27.832;2024-03-02T08:13:16;98751.22;;;12.74;100.00
9717;BME280;4897;43.570;27.832;2024-03-02T08:15:43;98777.59;;;13.14;100.00
9717;BME280;4897;43.570;27.832;2024-03-02T08:18:10;98781.47;;;13.37;100.00
9717;BME280;4897;43.570;27.832;2024-03-02T08:20:37;98781.66;;;13.43;100.00
9717;BME280;4897;43.570;27.832;2024-03-02T08:23:06;98711.53;;;13.21;100.00
9717;BME280;4897;43.570;27.832;2024-03-02T08:25:33;98777.06;;;13.53;100.00
9717;BME280;4897;43.570;27.832;2024-03-02T08:28:00;98760.06;;;13.27;100.00
9717;BME280;4897;43.570;27.832;2024-03-02T08:30:27;98784.44;;;13.51;100.00
9717;BME280;4897;43.570;27.832;2024-03-02T08:32:54;98777.41;;;13.58;100.00
9717;BME280;4897;43.570;27.832;2024-03-02T08:35:23;98725.97;;;13.45;100.00
9717;BME280;4897;43.570;27.832;2024-03-02T08:37:50;98781.84;;;13.68;100.00
9717;BME280;4897;43.570;27.832;2024-03-02T08:40:21;98763.66;;;13.61;100.00
9717;BME280;4897;43.570;27.832;2024-03-02T08:42:48;98775.09;;;13.63;100.00
9717;BME280;4897;43.570;27.832;2024-03-02T08:45:15;98765.47;;;13.53;100.00
9717;BME280;4897;43.570;27.832;2024-03-02T08:47:42;98787.69;;;13.63;100.00
9717;BME280;4897;43.570;27.832;2024-03-02T08:50:12;98809.16;;;13.63;100.00
9717;BME280;4897;43.570;27.832;2024-03-02T08:52:39;98777.34;;;13.76;100.00
9717;BME280;4897;43.570;27.832;2024-03-02T08:55:09;98760.13;;;13.87;100.00
9717;BME280;4897;43.570;27.832;2024-03-02T08:57:44;98780.84;;;14.02;100.00
9717;BME280;4897;43.570;27.832;2024-03-02T09:00:12;98772.28;;;14.07;100.00
9717;BME280;4897;43.570;27.832;2024-03-02T09:02:39;98767.66;;;14.25;100.00
9717;BME280;4897;43.570;27.832;2024-03-02T09:05:07;98761.25;;;14.18;100.00
9717;BME280;4897;43.570;27.832;2024-03-02T09:07:34;98768.78;;;14.48;100.00
9717;BME280;4897;43.570;27.832;2024-03-02T09:10:05;98753.63;;;14.39;100.00
9717;BME280;4897;43.570;27.832;2024-03-02T09:12:32;98777.13;;;15.11;100.00
9717;BME280;4897;43.570;27.832;2024-03-02T09:15:01;98772.59;;;15.44;100.00
9717;BME280;4897;43.570;27.832;2024-03-02T09:17:29;98699.22;;;15.01;100.00
9717;BME280;4897;43.570;27.832;2024-03-02T09:19:56;98771.50;;;15.93;100.00
9717;BME280;4897;43.570;27.832;2024-03-02T09:22:26;98758.66;;;16.03;100.00
9717;BME280;4897;43.570;27.832;2024-03-02T09:24:53;98767.91;;;16.47;100.00
9717;BME280;4897;43.570;27.832;2024-03-02T09:27:20;98770.59;;;16.55;100.00
9717;BME280;4897;43.570;27.832;2024-03-02T09:29:48;98700.22;;;17.17;100.00
9717;BME280;4897;43.570;27.832;2024-03-02T09:32:16;98764.91;;;18.07;100.00
9717;BME280;4897;43.570;27.832;2024-03-02T09:34:43;98775.38;;;18.10;100.00
9717;BME280;4897;43.570;27.832;2024-03-02T09:37:10;98764.16;;;17.47;100.00
9717;BME280;4897;43.570;27.832;2024-03-02T09:39:37;98719.50;;;17.36;100.00
9717;BME280;4897;43.570;27.832;2024-03-02T09:42:05;98767.25;;;18.25;100.00
9717;BME280;4897;43.570;27.832;2024-03-02T09:44:33;98773.47;;;18.25;100.00
9717;BME280;4897;43.570;27.832;2024-03-02T09:47:00;98778.97;;;18.03;100.00
9717;BME280;4897;43.570;27.832;2024-03-02T09:49:28;98745.38;;;17.53;100.00
9717;BME280;4897;43.570;27.832;2024-03-02T09:51:55;98748.91;;;18.42;100.00
9717;BME280;4897;43.570;27.832;2024-03-02T09:54:23;98778.66;;;20.04;100.00
9717;BME280;4897;43.570;27.832;2024-03-02T09:56:50;98766.53;;;20.95;100.00
9717;BME280;4897;43.570;27.832;2024-03-02T09:59:17;98775.03;;;21.85;100.00
9717;BME280;4897;43.570;27.832;2024-03-02T10:02:03;98772.94;;;21.67;100.00
9717;BME280;4897;43.570;27.832;2024-03-02T10:04:34;98716.41;;;21.76;100.00
9717;BME280;4897;43.570;27.832;2024-03-02T10:07:12;98759.19;;;22.96;100.00
9717;BME280;4897;43.570;27.832;2024-03-02T10:09:40;98757.38;;;23.22;100.00
9717;BME280;4897;43.570;27.832;2024-03-02T10:12:08;98751.97;;;22.77;100.00
9717;BME280;4897;43.570;27.832;2024-03-02T10:14:36;98752.41;;;21.97;100.00
9717;BME280;4897;43.570;27.832;2024-03-02T10:17:05;98735.69;;;22.95;100.00
9717;BME280;4897;43.570;27.832;2024-03-02T10:19:33;98758.13;;;22.47;100.00
9717;BME280;4897;43.570;27.832;2024-03-02T10:22:03;98709.13;;;22.40;100.00
9717;BME280;4897;43.570;27.832;2024-03-02T10:24:38;98704.22;;;22.11;100.00
9717;BME280;4897;43.570;27.832;2024-03-02T10:27:07;98701.28;;;21.99;100.00
9717;BME280;4897;43.570;27.832;2024-03-02T10:29:39;98741.94;;;21.81;100.00
9717;BME280;4897;43.570;27.832;2024-03-02T10:32:09;98733.56;;;21.70;100.00
9717;BME280;4897;43.570;27.832;2024-03-02T10:34:40;98691.72;;;21.84;100.00
9717;BME280;4897;43.570;27.832;2024-03-02T10:37:07;98718.72;;;22.49;97.93
9717;BME280;4897;43.570;27.832;2024-03-02T10:39:35;98733.28;;;22.74;90.92
9717;BME280;4897;43.570;27.832;2024-03-02T10:42:03;98726.41;;;22.08;91.66
9717;BME280;4897;43.570;27.832;2024-03-02T10:44:33;98648.53;;;22.00;90.24
9717;BME280;4897;43.570;27.832;2024-03-02T10:47:01;98707.41;;;22.52;86.54
9717;BME280;4897;43.570;27.832;2024-03-02T10:49:29;98719.59;;;22.87;85.66
9717;BME280;4897;43.570;27.832;2024-03-02T10:51:58;98701.13;;;22.45;87.69
9717;BME280;4897;43.570;27.832;2024-03-02T10:54:25;98672.31;;;22.18;85.42
9717;BME280;4897;43.570;27.832;2024-03-02T10:56:55;98704.38;;;22.16;89.79
9717;BME280;4897;43.570;27.832;2024-03-02T10:59:28;98740.09;;;21.36;100.00
9717;BME280;4897;43.570;27.832;2024-03-02T11:01:57;98716.41;;;21.82;100.00
9717;BME280;4897;43.570;27.832;2024-03-02T11:04:26;98708.03;;;21.71;100.00
9717;BME280;4897;43.570;27.832;2024-03-02T11:06:58;98673.28;;;21.86;93.20
9717;BME280;4897;43.570;27.832;2024-03-02T11:09:28;98715.38;;;21.24;97.25
9717;BME280;4897;43.570;27.832;2024-03-02T11:12:03;98687.28;;;20.91;100.00
9717;BME280;4897;43.570;27.832;2024-03-02T11:14:34;98708.53;;;22.32;88.42
9717;BME280;4897;43.570;27.832;2024-03-02T11:17:04;98700.22;;;22.64;83.75
9717;BME280;4897;43.570;27.832;2024-03-02T11:19:32;98635.78;;;22.32;76.00
9717;BME280;4897;43.570;27.832;2024-03-02T11:22:02;98670.22;;;24.30;67.45
9717;BME280;4897;43.570;27.832;2024-03-02T11:24:31;98636.06;;;24.39;60.74
9717;BME280;4897;43.570;27.832;2024-03-02T11:26:59;98701.91;;;23.28;65.68
9717;BME280;4897;43.570;27.832;2024-03-02T11:29:46;98718.47;;;21.74;89.98
9717;BME280;4897;43.570;27.832;2024-03-02T11:32:18;98642.09;;;20.64;99.78
9717;BME280;4897;43.570;27.832;2024-03-02T11:34:46;98699.22;;;20.84;100.00
9717;BME280;4897;43.570;27.832;2024-03-02T11:37:16;98701.38;;;21.14;100.00
9717;BME280;4897;43.570;27.832;2024-03-02T11:39:44;98703.22;;;21.86;100.00
9717;BME280;4897;43.570;27.832;2024-03-02T11:42:12;98699.13;;;23.03;79.68
9717;BME280;4897;43.570;27.832;2024-03-02T11:44:43;98686.94;;;24.04;63.72
9717;BME280;4897;43.570;27.832;2024-03-02T11:47:12;98708.44;;;24.67;55.08
9717;BME280;4897;43.570;27.832;2024-03-02T11:49:44;98670.94;;;23.65;58.22
9717;BME280;4897;43.570;27.832;2024-03-02T11:52:13;98696.75;;;24.30;56.64
9717;BME280;4897;43.570;27.832;2024-03-02T11:54:45;98689.13;;;23.53;58.39
9717;BME280;4897;43.570;27.832;2024-03-02T11:57:17;98665.66;;;23.88;58.65
9717;BME280;4897;43.570;27.832;2024-03-02T11:59:45;98687.91;;;23.92;56.49
9717;BME280;4897;43.570;27.832;2024-03-02T12:02:16;98664.78;;;23.51;53.73
9717;BME280;4897;43.570;27.832;2024-03-02T12:04:44;98690.91;;;22.78;55.88
9717;BME280;4897;43.570;27.832;2024-03-02T12:07:18;98654.50;;;22.66;56.58
9717;BME280;4897;43.570;27.832;2024-03-02T12:09:49;98663.44;;;23.60;53.96
9717;BME280;4897;43.570;27.832;2024-03-02T12:12:17;98686.00;;;24.46;49.25
9717;BME280;4897;43.570;27.832;2024-03-02T12:14:51;98696.94;;;25.47;44.26
9717;BME280;4897;43.570;27.832;2024-03-02T12:17:21;98667.88;;;26.27;42.25
9717;BME280;4897;43.570;27.832;2024-03-02T12:19:48;98677.56;;;25.49;43.77
9717;BME280;4897;43.570;27.832;2024-03-02T12:22:15;98679.00;;;25.51;44.77
9717;BME280;4897;43.570;27.832;2024-03-02T12:24:43;98686.94;;;24.40;46.78
9717;BME280;4897;43.570;27.832;2024-03-02T12:27:15;98689.69;;;23.37;48.91
9717;BME280;4897;43.570;27.832;2024-03-02T12:29:44;98685.75;;;22.57;54.15
9717;BME280;4897;43.570;27.832;2024-03-02T12:32:11;98685.00;;;21.73;62.02
9717;BME280;4897;43.570;27.832;2024-03-02T12:34:38;98658.06;;;21.06;68.39
9717;BME280;4897;43.570;27.832;2024-03-02T12:37:06;98692.16;;;21.41;64.08
9717;BME280;4897;43.570;27.832;2024-03-02T12:39:35;98668.75;;;21.27;61.88
9717;BME280;4897;43.570;27.832;2024-03-02T12:42:03;98671.19;;;20.77;77.33
9717;BME280;4897;43.570;27.832;2024-03-02T12:44:31;98672.09;;;21.29;76.39
9717;BME280;4897;43.570;27.832;2024-03-02T12:46:58;98684.97;;;20.75;75.05
9717;BME280;4897;43.570;27.832;2024-03-02T12:49:25;98674.97;;;20.22;79.65
9717;BME280;4897;43.570;27.832;2024-03-02T12:51:54;98684.75;;;20.16;91.25
9717;BME280;4897;43.570;27.832;2024-03-02T12:54:23;98673.41;;;20.00;98.22
9717;BME280;4897;43.570;27.832;2024-03-02T12:56:50;98636.22;;;19.59;100.00
9717;BME280;4897;43.570;27.832;2024-03-02T12:59:20;98664.25;;;19.39;100.00
9717;BME280;4897;43.570;27.832;2024-03-02T13:01:53;98674.31;;;19.45;100.00
9717;BME280;4897;43.570;27.832;2024-03-02T13:04:24;98626.22;;;18.77;100.00
9717;BME280;4897;43.570;27.832;2024-03-02T13:06:51;98638.97;;;18.83;100.00
9717;BME280;4897;43.570;27.832;2024-03-02T13:09:19;98706.28;;;18.86;100.00
9717;BME280;4897;43.570;27.832;2024-03-02T13:11:46;98536.19;;;17.90;100.00
9717;BME280;4897;43.570;27.832;2024-03-02T13:14:13;98687.59;;;18.70;100.00